Time;durP1;ratioP1;P1;durP2;ratioP2;P2;SDS_P1;SDS_P2;PMS_P1;PMS_P2;Temp;Humidity;BMP_temperature;BMP_pressure;BME280_temperature;BME280_humidity;BME280_pressure;Samples;Min_cycle;Max_cycle;Signal;HPM_P1;HPM_P2
2022/06/30 00:00:55;;;;;;;6.90;5.63;;;19.30;99.90;;;;;;5013608;28;20252;-72
2022/06/30 00:03:21;;;;;;;7.65;5.93;;;19.30;99.90;;;;;;5013329;28;20201;-71
2022/06/30 00:05:46;;;;;;;6.13;5.60;;;19.20;99.90;;;;;;5023227;28;20216;-72
2022/06/30 00:08:12;;;;;;;7.22;5.65;;;19.20;99.90;;;;;;5034342;28;20173;-72
2022/06/30 00:10:38;;;;;;;8.00;6.53;;;19.20;99.90;;;;;;5036123;28;20180;-75
2022/06/30 00:13:03;;;;;;;6.40;5.90;;;19.20;99.90;;;;;;5025669;28;20204;-76
2022/06/30 00:15:29;;;;;;;11.18;6.63;;;19.10;99.90;;;;;;5027035;28;20207;-72
2022/06/30 00:17:55;;;;;;;6.68;6.13;;;19.10;99.90;;;;;;5022637;28;20185;-72
2022/06/30 00:20:20;;;;;;;7.18;6.50;;;19.00;99.90;;;;;;5013246;28;20630;-72
2022/06/30 00:22:46;;;;;;;7.72;6.35;;;19.00;99.90;;;;;;5025233;28;20188;-72
2022/06/30 00:25:13;;;;;;;9.57;6.78;;;18.90;99.90;;;;;;5041258;28;20282;-71
2022/06/30 00:27:39;;;;;;;9.95;6.90;;;18.80;99.90;;;;;;5024497;28;20263;-71
2022/06/30 00:30:06;;;;;;;7.20;6.57;;;18.80;99.90;;;;;;5026361;28;20203;-71
2022/06/30 00:32:32;;;;;;;7.30;6.60;;;18.80;99.90;;;;;;5025076;28;20192;-72
2022/06/30 00:34:58;;;;;;;9.85;6.40;;;18.70;99.90;;;;;;5025636;28;20298;-72
2022/06/30 00:37:24;;;;;;;7.32;6.65;;;18.70;99.90;;;;;;5013102;28;20181;-73
2022/06/30 00:39:49;;;;;;;8.35;6.25;;;18.70;99.90;;;;;;5013110;28;20188;-73
2022/06/30 00:42:15;;;;;;;6.50;5.70;;;18.60;99.90;;;;;;5012310;28;20544;-73
2022/06/30 00:44:40;;;;;;;8.00;7.05;;;18.60;99.90;;;;;;5013054;28;20255;-72
2022/06/30 00:47:06;;;;;;;7.43;6.72;;;18.60;99.90;;;;;;5029910;28;20829;-73
2022/06/30 00:49:32;;;;;;;8.38;7.47;;;18.50;99.90;;;;;;5039166;28;20208;-73
2022/06/30 00:52:01;;;;;;;7.90;7.13;;;18.40;99.90;;;;;;5043079;28;20176;-72
2022/06/30 00:54:27;;;;;;;8.48;7.40;;;18.40;99.90;;;;;;5036595;28;20200;-72
2022/06/30 00:56:55;;;;;;;9.48;7.57;;;18.30;99.90;;;;;;5024728;28;20685;-73
2022/06/30 00:59:21;;;;;;;7.60;6.93;;;18.30;99.90;;;;;;5041224;28;20172;-72
2022/06/30 01:01:48;;;;;;;7.90;7.10;;;18.20;99.90;;;;;;5042090;28;20203;-72
2022/06/30 01:04:15;;;;;;;8.35;7.55;;;18.30;99.90;;;;;;5034893;28;20227;-72
2022/06/30 01:06:46;;;;;;;7.43;6.75;;;18.40;99.90;;;;;;5039763;28;20266;-73
2022/06/30 01:12:41;;;;;;;7.10;6.60;;;18.30;99.90;;;;;;5029512;28;20515;-73
2022/06/30 01:14:42;;;;;;;8.20;7.43;;;18.30;99.90;;;;;;5034960;28;20219;-73
2022/06/30 01:17:08;;;;;;;8.55;7.75;;;18.20;99.90;;;;;;5043721;28;20164;-73
2022/06/30 01:19:33;;;;;;;8.73;7.65;;;18.20;99.90;;;;;;5051988;28;20175;-73
2022/06/30 01:22:01;;;;;;;8.40;7.45;;;18.20;99.90;;;;;;5036888;28;20587;-73
2022/06/30 01:24:26;;;;;;;8.18;7.38;;;18.20;99.90;;;;;;5039871;28;20765;-73
2022/06/30 01:26:56;;;;;;;10.30;8.20;;;18.10;99.90;;;;;;5043956;28;20251;-73
2022/06/30 01:29:22;;;;;;;8.18;7.38;;;18.10;99.90;;;;;;5052137;28;20177;-73
2022/06/30 01:31:47;;;;;;;9.05;7.38;;;18.00;99.90;;;;;;5047501;28;20180;-73
2022/06/30 01:34:13;;;;;;;8.82;8.02;;;18.00;99.90;;;;;;5012172;28;20227;-73
2022/06/30 01:36:39;;;;;;;8.90;7.82;;;18.00;99.90;;;;;;5012460;28;20201;-73
2022/06/30 01:39:04;;;;;;;8.13;7.20;;;18.00;99.90;;;;;;5011158;28;20336;-72
2022/06/30 01:41:30;;;;;;;10.00;8.02;;;18.00;99.90;;;;;;5012236;28;20177;-73
2022/06/30 01:43:55;;;;;;;9.02;7.38;;;18.00;99.90;;;;;;5012187;28;20548;-73
2022/06/30 01:46:21;;;;;;;8.43;7.68;;;17.90;99.90;;;;;;5010923;28;20237;-72
2022/06/30 01:48:46;;;;;;;8.52;7.50;;;18.00;99.90;;;;;;5011964;28;20580;-72
2022/06/30 01:51:12;;;;;;;8.82;8.10;;;17.90;99.90;;;;;;5012103;28;20181;-73
2022/06/30 01:53:38;;;;;;;9.45;8.52;;;17.90;99.90;;;;;;5012516;28;20679;-71
2022/06/30 01:56:03;;;;;;;9.23;8.32;;;17.90;99.90;;;;;;5016240;28;20177;-72
2022/06/30 01:58:29;;;;;;;10.88;8.25;;;17.90;99.90;;;;;;5019444;28;20188;-72
2022/06/30 02:00:55;;;;;;;11.27;8.40;;;17.80;99.90;;;;;;5034792;28;20595;-72
2022/06/30 02:03:20;;;;;;;9.00;8.20;;;17.80;99.90;;;;;;5047013;28;20195;-72
2022/06/30 02:05:46;;;;;;;8.05;7.20;;;17.80;99.90;;;;;;5046094;28;20208;-73
2022/06/30 02:08:11;;;;;;;8.93;8.13;;;17.80;99.90;;;;;;5032670;28;20204;-73
2022/06/30 02:10:37;;;;;;;10.75;8.60;;;17.80;99.90;;;;;;5015870;28;20181;-72
2022/06/30 02:13:05;;;;;;;9.93;8.52;;;17.80;99.90;;;;;;5015955;28;20224;-72
2022/06/30 02:15:34;;;;;;;9.68;8.50;;;17.70;99.90;;;;;;5015711;28;20173;-73
2022/06/30 02:18:03;;;;;;;9.00;7.80;;;17.70;99.90;;;;;;5016120;28;20183;-73
2022/06/30 02:20:29;;;;;;;10.30;8.95;;;17.70;99.90;;;;;;5015879;28;20177;-71
2022/06/30 02:22:57;;;;;;;9.30;8.48;;;17.70;99.90;;;;;;5015216;28;20210;-72
2022/06/30 02:25:24;;;;;;;9.82;8.90;;;17.70;99.90;;;;;;5015624;28;20205;-71
2022/06/30 02:27:50;;;;;;;9.23;8.13;;;17.70;99.90;;;;;;5015565;28;20185;-72
2022/06/30 02:30:16;;;;;;;10.77;8.57;;;17.60;99.90;;;;;;5015305;28;20238;-72
2022/06/30 02:32:42;;;;;;;10.13;9.15;;;17.60;99.90;;;;;;5015121;28;20292;-72
2022/06/30 02:35:08;;;;;;;10.63;8.45;;;17.60;99.90;;;;;;5020136;28;20678;-73
2022/06/30 02:37:34;;;;;;;10.77;8.68;;;17.50;99.90;;;;;;5035015;28;20184;-72
2022/06/30 02:39:59;;;;;;;9.80;8.52;;;17.60;99.90;;;;;;5035118;28;20169;-73
2022/06/30 02:42:25;;;;;;;10.13;8.85;;;17.60;99.90;;;;;;5034485;28;20238;-72
2022/06/30 02:44:50;;;;;;;8.25;7.55;;;17.50;99.90;;;;;;5023818;28;20213;-73
2022/06/30 02:47:16;;;;;;;10.02;9.13;;;17.50;99.90;;;;;;5015088;28;20681;-73
2022/06/30 02:49:42;;;;;;;10.38;9.38;;;17.50;99.90;;;;;;5015018;28;20165;-71
2022/06/30 02:52:08;;;;;;;11.20;9.70;;;17.50;99.90;;;;;;5015182;28;20220;-72
2022/06/30 02:54:33;;;;;;;14.25;9.57;;;17.50;99.90;;;;;;5014912;28;20197;-72
2022/06/30 02:56:59;;;;;;;10.15;9.10;;;17.50;99.90;;;;;;5014893;28;20184;-72
2022/06/30 02:59:25;;;;;;;10.13;9.13;;;17.50;99.90;;;;;;5014710;28;20169;-71
2022/06/30 03:01:50;;;;;;;10.57;9.35;;;17.40;99.90;;;;;;5014528;28;20192;-72
2022/06/30 03:04:16;;;;;;;10.50;9.40;;;17.40;99.90;;;;;;5012988;28;20551;-72
2022/06/30 03:06:41;;;;;;;10.88;9.75;;;17.40;99.90;;;;;;5014520;28;20208;-72
2022/06/30 03:09:07;;;;;;;10.68;9.68;;;17.50;99.90;;;;;;5014784;28;20199;-72
2022/06/30 03:11:33;;;;;;;12.57;9.63;;;17.50;99.90;;;;;;5014273;28;20684;-73
2022/06/30 03:13:59;;;;;;;13.68;10.88;;;17.40;99.90;;;;;;5014478;28;20275;-73
2022/06/30 03:16:24;;;;;;;12.90;10.90;;;17.40;99.90;;;;;;5014745;28;20180;-72
2022/06/30 03:18:52;;;;;;;12.15;9.23;;;17.40;99.90;;;;;;5014407;28;20240;-73
2022/06/30 03:21:18;;;;;;;15.00;9.18;;;17.40;99.90;;;;;;5014290;28;20176;-73
2022/06/30 03:23:44;;;;;;;12.23;10.27;;;17.40;99.90;;;;;;5013821;28;20662;-73
2022/06/30 03:26:10;;;;;;;11.98;10.02;;;17.40;99.90;;;;;;5014143;28;20256;-72
2022/06/30 03:28:35;;;;;;;12.55;10.10;;;17.40;99.90;;;;;;5014265;28;20257;-72
2022/06/30 03:31:01;;;;;;;10.40;9.50;;;17.40;99.90;;;;;;5013944;28;20208;-72
2022/06/30 03:33:27;;;;;;;9.82;8.40;;;17.40;99.90;;;;;;5013860;28;20570;-71
2022/06/30 03:35:52;;;;;;;10.82;9.43;;;17.40;99.90;;;;;;5013986;28;20177;-71
2022/06/30 03:38:18;;;;;;;11.00;9.65;;;17.50;99.90;;;;;;5013951;28;20205;-71
2022/06/30 03:40:44;;;;;;;11.18;9.23;;;17.60;99.90;;;;;;5013930;28;20541;-71
2022/06/30 03:43:09;;;;;;;9.52;8.70;;;17.60;99.90;;;;;;5013391;28;20246;-72
2022/06/30 03:45:35;;;;;;;9.70;8.55;;;17.70;99.90;;;;;;5013574;28;20217;-71
2022/06/30 03:48:02;;;;;;;11.25;9.07;;;17.70;99.90;;;;;;5013910;28;20176;-72
2022/06/30 03:50:28;;;;;;;9.50;8.55;;;17.70;99.90;;;;;;5013763;28;20263;-72
2022/06/30 03:52:54;;;;;;;9.23;8.48;;;17.80;99.90;;;;;;5016308;28;20643;-72
2022/06/30 03:55:20;;;;;;;10.13;9.13;;;17.80;99.90;;;;;;5044264;28;20270;-71
2022/06/30 03:57:46;;;;;;;11.27;9.88;;;17.90;99.90;;;;;;5050156;28;20557;-72
2022/06/30 04:00:12;;;;;;;9.30;8.50;;;17.90;99.90;;;;;;5042830;28;20183;-71
2022/06/30 04:02:38;;;;;;;10.85;9.93;;;17.90;99.90;;;;;;5013616;28;20173;-71
2022/06/30 04:05:04;;;;;;;14.63;9.18;;;18.00;99.90;;;;;;5013611;28;20228;-72
2022/06/30 04:07:30;;;;;;;14.57;9.93;;;18.00;99.90;;;;;;5014015;28;20170;-71
2022/06/30 04:09:56;;;;;;;9.80;8.85;;;18.10;99.90;;;;;;5013313;28;20538;-73
2022/06/30 04:12:22;;;;;;;10.02;8.68;;;18.10;99.90;;;;;;5022241;28;20181;-73
2022/06/30 04:14:47;;;;;;;10.13;9.00;;;18.20;99.90;;;;;;5027961;28;20251;-73
2022/06/30 04:17:13;;;;;;;10.27;9.27;;;18.30;99.90;;;;;;5023736;28;20271;-73
2022/06/30 04:19:38;;;;;;;11.70;9.30;;;18.30;99.90;;;;;;5035430;28;20662;-73
2022/06/30 04:22:05;;;;;;;9.48;8.55;;;18.40;99.90;;;;;;5039805;28;20275;-73
2022/06/30 04:24:31;;;;;;;9.85;8.80;;;18.50;99.90;;;;;;5026224;28;20247;-72
2022/06/30 04:26:56;;;;;;;8.50;7.78;;;18.60;99.90;;;;;;5032835;28;20188;-72
2022/06/30 04:29:22;;;;;;;9.77;8.77;;;18.70;99.90;;;;;;5020643;28;20177;-73
2022/06/30 04:34:32;;;;;;;12.10;9.70;;;18.90;99.90;;;;;;5028107;28;20561;-72
2022/06/30 04:36:58;;;;;;;10.68;8.88;;;18.90;99.90;;;;;;5022902;28;20169;-77
2022/06/30 04:39:23;;;;;;;9.68;8.52;;;18.90;99.90;;;;;;5022226;28;20173;-73
2022/06/30 04:41:49;;;;;;;8.80;7.65;;;19.00;99.90;;;;;;5022160;28;20710;-73
2022/06/30 04:44:15;;;;;;;9.27;7.65;;;19.10;99.90;;;;;;5022240;28;20200;-75
2022/06/30 04:46:40;;;;;;;12.45;8.85;;;19.30;99.90;;;;;;5023432;28;20220;-74
2022/06/30 04:49:07;;;;;;;9.18;8.23;;;19.50;99.90;;;;;;5021448;28;20169;-73
2022/06/30 04:51:33;;;;;;;9.55;7.80;;;19.60;99.90;;;;;;5019759;28;20173;-74
2022/06/30 04:53:58;;;;;;;10.38;8.93;;;19.70;99.90;;;;;;5022953;28;20286;-74
2022/06/30 04:56:24;;;;;;;9.45;8.25;;;19.80;99.90;;;;;;5019791;28;20184;-73
2022/06/30 04:58:50;;;;;;;12.75;9.13;;;19.90;99.90;;;;;;5031265;28;20263;-74
2022/06/30 05:01:15;;;;;;;10.52;8.80;;;19.90;99.90;;;;;;5028136;28;20176;-73
2022/06/30 05:03:41;;;;;;;9.68;8.63;;;19.90;99.90;;;;;;5008265;28;20205;-73
2022/06/30 05:06:07;;;;;;;11.45;10.23;;;20.00;99.90;;;;;;5006609;28;20696;-74
2022/06/30 05:08:33;;;;;;;13.93;9.25;;;20.00;99.90;;;;;;5007726;28;20231;-74
2022/06/30 05:11:00;;;;;;;12.90;9.55;;;20.10;99.90;;;;;;5011540;28;20211;-73
2022/06/30 05:13:26;;;;;;;10.73;9.13;;;20.20;99.90;;;;;;5024550;28;20211;-73
2022/06/30 05:15:52;;;;;;;13.43;9.50;;;20.20;99.90;;;;;;5026366;28;20648;-74
2022/06/30 05:18:18;;;;;;;11.10;10.00;;;20.30;99.90;;;;;;5017066;28;20243;-74
2022/06/30 05:20:43;;;;;;;12.00;10.88;;;20.50;99.90;;;;;;5012477;28;20545;-72
2022/06/30 05:23:09;;;;;;;11.15;10.15;;;20.60;99.90;;;;;;5021757;28;20709;-74
2022/06/30 05:28:21;;;;;;;12.95;10.15;;;20.70;99.90;;;;;;5024499;28;20250;-74
2022/06/30 05:30:48;;;;;;;12.05;10.02;;;20.80;99.90;;;;;;5027209;28;20191;-73
2022/06/30 05:33:13;;;;;;;11.65;10.35;;;20.80;99.90;;;;;;5022830;28;20228;-74
2022/06/30 05:35:40;;;;;;;9.90;9.00;;;20.80;99.90;;;;;;5022291;28;20180;-74
2022/06/30 05:38:06;;;;;;;12.23;10.35;;;20.90;99.90;;;;;;5025596;28;20267;-71
2022/06/30 05:40:31;;;;;;;11.63;10.43;;;21.00;99.90;;;;;;5028565;28;20280;-74
2022/06/30 05:42:57;;;;;;;10.88;9.88;;;21.00;99.90;;;;;;5020326;28;20212;-75
2022/06/30 05:45:23;;;;;;;10.50;9.50;;;21.10;99.90;;;;;;5016652;28;20197;-75
2022/06/30 05:47:50;;;;;;;10.82;9.48;;;21.20;99.90;;;;;;5025502;28;20196;-75
2022/06/30 05:50:17;;;;;;;10.18;9.15;;;21.30;99.90;;;;;;5015742;28;20185;-74
2022/06/30 05:52:43;;;;;;;10.02;9.02;;;21.50;99.90;;;;;;5015485;28;20173;-76
2022/06/30 05:55:09;;;;;;;10.88;9.77;;;21.60;99.90;;;;;;5016503;28;20229;-75
2022/06/30 05:57:51;;;;;;;10.45;9.45;;;21.70;99.90;;;;;;5026134;28;20216;-74
2022/06/30 06:00:18;;;;;;;11.30;10.05;;;21.80;99.90;;;;;;5032248;28;20555;-73
2022/06/30 06:02:44;;;;;;;15.20;10.40;;;21.90;99.90;;;;;;5033396;28;20189;-74
2022/06/30 06:05:09;;;;;;;10.48;9.50;;;21.80;99.90;;;;;;5041360;28;20204;-73
2022/06/30 06:07:36;;;;;;;10.88;10.02;;;21.70;99.90;;;;;;5025034;28;20554;-73
2022/06/30 06:10:01;;;;;;;9.73;8.88;;;21.80;99.90;;;;;;5023688;28;20580;-73
2022/06/30 06:12:27;;;;;;;11.43;10.43;;;22.00;99.90;;;;;;5032781;28;20207;-73
2022/06/30 06:14:53;;;;;;;11.18;9.77;;;22.10;99.90;;;;;;5039377;28;20680;-72
2022/06/30 06:17:18;;;;;;;12.95;11.60;;;22.10;99.90;;;;;;5026798;28;20188;-74
2022/06/30 06:19:44;;;;;;;12.35;11.18;;;22.00;99.90;;;;;;5023349;28;20219;-74
2022/06/30 06:22:09;;;;;;;10.85;9.73;;;22.00;99.90;;;;;;5046501;28;20545;-76
2022/06/30 06:24:35;;;;;;;12.02;10.88;;;22.00;99.90;;;;;;5031846;28;20196;-73
2022/06/30 06:27:00;;;;;;;12.73;11.27;;;22.00;99.90;;;;;;5039632;28;20272;-74
2022/06/30 06:29:26;;;;;;;16.88;11.55;;;22.00;99.90;;;;;;5024766;28;20608;-74
2022/06/30 06:31:52;;;;;;;11.68;10.60;;;22.00;99.90;;;;;;5020625;28;20193;-73
2022/06/30 06:34:17;;;;;;;13.32;12.02;;;22.10;99.90;;;;;;5024709;28;20197;-72
2022/06/30 06:36:43;;;;;;;12.98;11.73;;;22.20;99.90;;;;;;5025704;28;20184;-76
2022/06/30 06:39:09;;;;;;;13.48;12.18;;;22.30;99.90;;;;;;5020024;28;20633;-73
2022/06/30 06:41:34;;;;;;;13.00;11.80;;;22.10;99.90;;;;;;5015174;28;20223;-74
2022/06/30 06:44:00;;;;;;;13.02;11.35;;;22.00;99.90;;;;;;5015785;28;20197;-74
2022/06/30 06:46:28;;;;;;;12.60;11.32;;;22.00;99.90;;;;;;5014715;28;20209;-74
2022/06/30 06:49:09;;;;;;;11.40;10.30;;;22.20;99.90;;;;;;5014630;28;20166;-74
2022/06/30 06:51:35;;;;;;;9.57;8.65;;;22.50;99.90;;;;;;5014461;28;20640;-73
2022/06/30 06:54:02;;;;;;;11.60;10.45;;;22.90;99.90;;;;;;5017919;28;20641;-73
2022/06/30 06:56:28;;;;;;;12.23;11.02;;;22.90;99.90;;;;;;5034250;28;20200;-73
2022/06/30 06:58:53;;;;;;;11.90;10.73;;;23.00;99.90;;;;;;5034276;28;20571;-74
2022/06/30 07:01:19;;;;;;;12.70;11.50;;;23.10;99.90;;;;;;5022461;28;20235;-74
2022/06/30 07:03:45;;;;;;;13.05;11.85;;;23.20;99.90;;;;;;5022614;28;20212;-74
2022/06/30 07:06:11;;;;;;;12.07;10.98;;;23.20;99.90;;;;;;5027498;28;20262;-75
2022/06/30 07:08:37;;;;;;;11.88;10.65;;;23.20;99.90;;;;;;5036660;28;20192;-74
2022/06/30 07:11:03;;;;;;;11.77;10.75;;;23.30;99.90;;;;;;5045532;28;20795;-74
2022/06/30 07:13:30;;;;;;;12.73;11.40;;;23.30;99.90;;;;;;5028163;28;20197;-73
2022/06/30 07:15:55;;;;;;;10.48;9.50;;;23.40;99.90;;;;;;5043079;28;20545;-75
2022/06/30 07:18:21;;;;;;;10.43;9.45;;;23.20;99.90;;;;;;5042850;28;20211;-76
2022/06/30 07:20:48;;;;;;;10.93;9.18;;;23.10;99.90;;;;;;5051679;28;20176;-74
2022/06/30 07:23:14;;;;;;;10.13;9.25;;;23.10;99.90;;;;;;5039022;28;20201;-73
2022/06/30 07:25:40;;;;;;;10.13;9.25;;;23.30;99.90;;;;;;5036768;28;20561;-74
2022/06/30 07:28:05;;;;;;;10.50;9.60;;;23.40;99.90;;;;;;5046917;28;20179;-74
2022/06/30 07:30:31;;;;;;;8.75;8.05;;;23.70;99.90;;;;;;5045852;28;20180;-76
2022/06/30 07:32:57;;;;;;;9.98;8.98;;;24.10;99.90;;;;;;5051864;28;20172;-75
2022/06/30 07:35:23;;;;;;;8.23;7.47;;;24.30;99.90;;;;;;5042436;28;20260;-73
2022/06/30 07:37:48;;;;;;;7.75;7.00;;;24.70;99.90;;;;;;5021027;28;20639;-71
2022/06/30 07:40:16;;;;;;;8.98;8.10;;;25.10;99.90;;;;;;5042152;28;20551;-73
2022/06/30 07:42:42;;;;;;;6.72;6.13;;;25.50;99.90;;;;;;5033382;28;20660;-72
2022/06/30 07:45:08;;;;;;;9.05;7.63;;;25.80;99.90;;;;;;5013454;28;20228;-73
2022/06/30 07:47:34;;;;;;;13.32;7.00;;;26.00;99.90;;;;;;5013647;28;20165;-72
2022/06/30 07:50:00;;;;;;;8.57;7.63;;;26.20;99.90;;;;;;5013680;28;20360;-73
2022/06/30 07:52:27;;;;;;;7.30;6.60;;;26.20;99.90;;;;;;5012209;28;20173;-73
2022/06/30 07:54:52;;;;;;;7.15;6.63;;;26.30;99.90;;;;;;5021189;28;20201;-74
2022/06/30 07:57:19;;;;;;;7.72;6.63;;;26.40;99.90;;;;;;5046906;28;20674;-72
2022/06/30 07:59:44;;;;;;;8.40;7.55;;;26.20;99.90;;;;;;5050000;28;20172;-72
2022/06/30 08:02:11;;;;;;;6.80;6.20;;;25.90;99.90;;;;;;5017239;28;20177;-72
2022/06/30 08:04:37;;;;;;;7.57;6.97;;;25.30;99.90;;;;;;5027389;28;20243;-71
2022/06/30 08:07:03;;;;;;;8.35;7.57;;;25.10;99.90;;;;;;5029226;28;20196;-71
2022/06/30 08:09:29;;;;;;;8.82;6.82;;;24.80;99.90;;;;;;5052575;28;20195;-71
2022/06/30 08:11:55;;;;;;;7.13;6.53;;;24.60;99.90;;;;;;5033334;28;20259;-72
2022/06/30 08:14:24;;;;;;;7.45;6.82;;;24.50;99.90;;;;;;5032715;28;20296;-73
2022/06/30 08:16:50;;;;;;;7.00;6.38;;;24.50;99.90;;;;;;5026808;28;20188;-73
2022/06/30 08:19:16;;;;;;;6.85;6.28;;;24.20;99.90;;;;;;5027437;28;20184;-73
2022/06/30 08:21:42;;;;;;;7.10;6.18;;;24.10;99.90;;;;;;5031161;28;20714;-73
2022/06/30 08:24:08;;;;;;;7.47;6.88;;;24.20;99.90;;;;;;5027094;28;20204;-73
2022/06/30 08:26:34;;;;;;;7.90;6.03;;;24.20;99.90;;;;;;5032392;28;20667;-71
2022/06/30 08:29:00;;;;;;;7.43;6.60;;;24.20;99.90;;;;;;5031188;28;20272;-71
2022/06/30 08:31:27;;;;;;;6.97;6.38;;;24.30;99.90;;;;;;5029139;28;20569;-71
2022/06/30 08:33:54;;;;;;;6.75;6.25;;;24.30;99.90;;;;;;5032093;28;20182;-72
2022/06/30 08:36:20;;;;;;;6.63;6.13;;;24.40;99.90;;;;;;5027534;28;20207;-71
2022/06/30 08:38:45;;;;;;;8.38;6.22;;;24.50;99.90;;;;;;5021208;28;20188;-71
2022/06/30 08:43:58;;;;;;;6.38;5.78;;;24.80;99.90;;;;;;5019201;28;20206;-71
2022/06/30 08:46:26;;;;;;;7.78;7.07;;;24.90;99.90;;;;;;5019127;28;20205;-71
2022/06/30 08:48:52;;;;;;;7.85;7.10;;;24.80;99.90;;;;;;5029040;28;20192;-71
2022/06/30 08:51:20;;;;;;;7.35;6.68;;;24.80;99.90;;;;;;5022260;28;20250;-71
2022/06/30 08:53:56;;;;;;;7.03;6.30;;;24.90;99.90;;;;;;5018074;28;20203;-71
2022/06/30 08:56:23;;;;;;;6.85;6.35;;;24.90;99.90;;;;;;5020042;28;20177;-71
2022/06/30 08:58:51;;;;;;;9.20;6.35;;;25.10;99.90;;;;;;5030097;28;20184;-71
2022/06/30 09:01:17;;;;;;;7.35;6.50;;;25.10;99.90;;;;;;5030624;28;20198;-71
2022/06/30 09:03:43;;;;;;;6.43;5.90;;;25.00;99.90;;;;;;5024613;28;20209;-71
2022/06/30 09:06:09;;;;;;;6.90;6.40;;;25.00;99.90;;;;;;5022552;28;20215;-71
2022/06/30 09:08:35;;;;;;;7.35;6.70;;;25.10;99.90;;;;;;5024298;28;20169;-71
2022/06/30 09:11:01;;;;;;;6.90;6.20;;;25.10;99.90;;;;;;5036365;28;20523;-71
2022/06/30 09:13:42;;;;;;;6.45;5.85;;;25.10;99.90;;;;;;5017429;28;20204;-71
2022/06/30 09:16:07;;;;;;;6.63;6.07;;;25.20;99.90;;;;;;5035936;28;20184;-71
2022/06/30 09:18:33;;;;;;;7.07;6.50;;;25.50;99.90;;;;;;5043337;28;20643;-71
2022/06/30 09:20:59;;;;;;;6.18;5.70;;;25.70;99.90;;;;;;5025633;28;20191;-72
2022/06/30 09:23:30;;;;;;;6.72;5.97;;;25.90;99.90;;;;;;5022806;28;20201;-72
2022/06/30 09:26:00;;;;;;;6.72;6.13;;;26.00;99.90;;;;;;5032207;28;20235;-73
2022/06/30 09:28:43;;;;;;;9.45;5.82;;;26.10;99.90;;;;;;5028288;28;20281;-73
2022/06/30 09:31:10;;;;;;;10.18;5.45;;;26.10;99.90;;;;;;5019336;28;20180;-73
2022/06/30 09:33:39;;;;;;;6.07;5.50;;;26.30;99.90;;;;;;5019966;28;20196;-74
2022/06/30 09:36:38;;;;;;;6.28;5.68;;;26.60;99.90;;;;;;5034853;28;20173;-73
2022/06/30 09:39:08;;;;;;;6.22;5.63;;;26.80;99.90;;;;;;5012978;28;20185;-75
2022/06/30 09:41:36;;;;;;;5.75;5.35;;;27.40;99.90;;;;;;5024679;28;20176;-74
2022/06/30 09:44:22;;;;;;;6.55;6.05;;;29.20;99.90;;;;;;5023143;28;20224;-74
2022/06/30 09:47:02;;;;;;;5.00;4.60;;;31.80;99.90;;;;;;5017407;28;20580;-75
2022/06/30 09:49:30;;;;;;;4.47;4.13;;;33.90;99.90;;;;;;5034259;28;20179;-72
2022/06/30 09:51:56;;;;;;;4.72;4.30;;;35.80;94.90;;;;;;5025686;28;20276;-71
2022/06/30 09:54:21;;;;;;;4.55;4.10;;;37.10;91.00;;;;;;5015020;28;20228;-71
2022/06/30 09:57:05;;;;;;;6.63;3.97;;;38.00;83.50;;;;;;5022875;28;20282;-71
2022/06/30 09:59:32;;;;;;;5.70;3.35;;;39.10;77.50;;;;;;5043171;28;20586;-71
2022/06/30 10:01:59;;;;;;;4.07;3.78;;;40.20;66.60;;;;;;5016025;28;20181;-71
2022/06/30 10:04:25;;;;;;;5.38;4.20;;;40.70;65.20;;;;;;5011174;28;20212;-69
2022/06/30 10:06:52;;;;;;;4.68;3.50;;;41.30;60.50;;;;;;5011326;28;20731;-69
2022/06/30 10:09:19;;;;;;;3.40;3.10;;;41.20;61.20;;;;;;5018546;28;20191;-69
2022/06/30 10:11:46;;;;;;;3.72;3.13;;;41.70;57.80;;;;;;5011541;28;20556;-69
2022/06/30 10:14:14;;;;;;;4.85;3.38;;;40.80;57.90;;;;;;5011338;28;20238;-69
2022/06/30 10:16:41;;;;;;;4.43;2.88;;;40.70;56.90;;;;;;5014941;28;20183;-69
2022/06/30 10:19:09;;;;;;;6.20;3.50;;;41.80;55.30;;;;;;5014911;28;20222;-69
2022/06/30 10:21:36;;;;;;;4.10;3.80;;;42.00;55.80;;;;;;5015073;28;20173;-69
2022/06/30 10:24:04;;;;;;;4.40;4.00;;;41.90;56.30;;;;;;5014755;28;20188;-69
2022/06/30 10:29:15;;;;;;;3.97;2.97;;;43.10;54.40;;;;;;5015089;28;20179;-69
2022/06/30 10:31:59;;;;;;;4.25;3.03;;;43.30;52.80;;;;;;5014634;28;20193;-69
2022/06/30 10:34:32;;;;;;;4.53;2.83;;;43.90;51.80;;;;;;5014879;28;20267;-69
2022/06/30 10:37:09;;;;;;;3.08;2.88;;;44.40;49.20;;;;;;5014853;28;20184;-69
2022/06/30 10:39:54;;;;;;;3.30;3.00;;;44.40;50.30;;;;;;5014766;28;20506;-69
2022/06/30 10:42:47;;;;;;;3.47;3.25;;;43.60;51.00;;;;;;5014368;28;20258;-69
2022/06/30 10:45:30;;;;;;;4.95;3.30;;;42.60;50.90;;;;;;5022229;28;20701;-69
2022/06/30 10:48:07;;;;;;;5.25;3.20;;;42.80;50.50;;;;;;5034217;28;20172;-69
2022/06/30 10:50:36;;;;;;;3.03;2.72;;;43.70;51.10;;;;;;5034417;28;20172;-69
2022/06/30 10:53:05;;;;;;;4.55;2.65;;;44.10;47.50;;;;;;5025645;28;20181;-69
2022/06/30 10:55:54;;;;;;;2.90;2.65;;;43.80;47.60;;;;;;5014440;28;20652;-69
2022/06/30 10:58:21;;;;;;;3.75;2.70;;;44.00;47.90;;;;;;5014440;28;20538;-69
2022/06/30 11:00:56;;;;;;;3.05;2.78;;;43.60;47.80;;;;;;5014514;28;20173;-69
2022/06/30 11:03:42;;;;;;;3.30;2.72;;;43.90;46.80;;;;;;5013887;28;20211;-69
2022/06/30 11:06:10;;;;;;;2.40;2.28;;;44.00;47.10;;;;;;5014023;28;20197;-69
2022/06/30 11:08:52;;;;;;;2.92;2.70;;;44.20;47.90;;;;;;5014100;28;20664;-69
2022/06/30 11:11:20;;;;;;;4.15;2.88;;;44.90;45.90;;;;;;5013979;28;20746;-69
2022/06/30 11:14:11;;;;;;;2.92;2.70;;;44.60;48.80;;;;;;5013619;28;20204;-69
2022/06/30 11:16:39;;;;;;;4.32;2.40;;;43.70;48.30;;;;;;5013871;28;20176;-69
2022/06/30 11:19:13;;;;;;;3.00;2.80;;;44.30;46.10;;;;;;5013751;28;20211;-69
2022/06/30 11:21:44;;;;;;;3.03;2.70;;;44.00;46.60;;;;;;5013786;28;20199;-69
2022/06/30 11:24:11;;;;;;;3.15;2.72;;;43.60;47.60;;;;;;5013903;28;20239;-70
2022/06/30 11:29:26;;;;;;;4.88;3.20;;;42.90;47.30;;;;;;5013798;28;20702;-69
2022/06/30 11:31:58;;;;;;;3.33;2.92;;;42.60;49.60;;;;;;5013469;28;20215;-70
2022/06/30 11:34:24;;;;;;;2.63;2.42;;;42.50;49.10;;;;;;5013636;28;20672;-69
2022/06/30 11:36:49;;;;;;;4.00;2.55;;;43.10;48.40;;;;;;5013570;28;20223;-69
2022/06/30 11:39:18;;;;;;;3.40;2.40;;;43.30;48.40;;;;;;5013557;28;20672;-69
2022/06/30 11:41:58;;;;;;;4.10;2.40;;;43.80;46.80;;;;;;5013337;28;20200;-70
2022/06/30 11:44:24;;;;;;;3.03;2.40;;;44.40;46.70;;;;;;5013411;28;20216;-69
2022/06/30 11:46:52;;;;;;;2.60;2.40;;;44.50;47.00;;;;;;5013426;28;20303;-69
2022/06/30 11:49:19;;;;;;;3.10;2.80;;;43.60;46.50;;;;;;5013485;28;20215;-70
2022/06/30 11:51:45;;;;;;;2.80;2.58;;;43.90;46.70;;;;;;5013084;28;20169;-70
2022/06/30 11:54:11;;;;;;;3.20;2.53;;;43.40;46.40;;;;;;5017645;28;20226;-70
2022/06/30 11:57:03;;;;;;;3.00;2.50;;;43.30;48.20;;;;;;5032880;28;20527;-70
2022/06/30 11:59:29;;;;;;;3.03;2.50;;;42.80;47.30;;;;;;5030091;28;20188;-70
2022/06/30 12:02:00;;;;;;;2.47;2.28;;;42.60;48.20;;;;;;5031076;28;20180;-70
2022/06/30 12:04:26;;;;;;;2.58;2.30;;;42.20;47.30;;;;;;5017140;28;20220;-69
2022/06/30 12:06:52;;;;;;;2.40;2.30;;;42.60;46.40;;;;;;5012981;28;20192;-69
2022/06/30 12:09:17;;;;;;;2.17;2.03;;;42.20;47.50;;;;;;5012999;28;20219;-69
2022/06/30 12:11:45;;;;;;;2.03;1.90;;;42.50;47.50;;;;;;5014689;28;20184;-70
2022/06/30 12:14:11;;;;;;;4.68;2.25;;;42.00;47.10;;;;;;5032554;28;20687;-70
2022/06/30 12:16:37;;;;;;;2.53;2.30;;;41.70;47.70;;;;;;5032764;28;20172;-70
2022/06/30 12:19:02;;;;;;;6.30;2.33;;;41.90;47.30;;;;;;5032664;28;20536;-70
2022/06/30 12:21:29;;;;;;;3.90;2.47;;;42.10;46.50;;;;;;5014653;28;20244;-70
2022/06/30 12:23:55;;;;;;;5.18;2.17;;;42.20;45.90;;;;;;5012492;28;20810;-70
2022/06/30 12:26:21;;;;;;;2.22;2.00;;;42.10;47.70;;;;;;5012830;28;20228;-70
2022/06/30 12:28:51;;;;;;;3.83;2.33;;;42.10;47.90;;;;;;5012632;28;20180;-70
2022/06/30 12:31:29;;;;;;;2.90;2.30;;;42.40;47.40;;;;;;5012593;28;20184;-70
2022/06/30 12:33:56;;;;;;;1.70;1.60;;;42.20;46.10;;;;;;5011063;28;20275;-70
2022/06/30 12:36:23;;;;;;;3.80;2.25;;;42.30;46.90;;;;;;5012501;28;20177;-70
2022/06/30 12:38:49;;;;;;;2.65;2.08;;;43.10;45.40;;;;;;5012061;28;20266;-70
2022/06/30 12:41:15;;;;;;;2.05;1.80;;;44.10;43.90;;;;;;5012415;28;20751;-70
2022/06/30 12:43:47;;;;;;;2.90;1.98;;;45.80;42.30;;;;;;5012200;28;20752;-70
2022/06/30 12:46:14;;;;;;;3.42;2.00;;;48.20;40.10;;;;;;5012245;28;20210;-72
2022/06/30 12:48:53;;;;;;;3.15;1.80;;;49.50;37.70;;;;;;5012347;28;20206;-73
2022/06/30 12:51:28;;;;;;;2.33;2.10;;;49.90;37.30;;;;;;5012423;28;20215;-73
2022/06/30 12:54:09;;;;;;;3.25;2.13;;;51.40;36.00;;;;;;5011981;28;20198;-73
2022/06/30 12:56:35;;;;;;;3.72;1.98;;;53.60;34.80;;;;;;5011099;28;20737;-73
2022/06/30 12:59:13;;;;;;;1.90;1.80;;;54.20;33.70;;;;;;5010916;28;20561;-73
2022/06/30 13:01:42;;;;;;;1.90;1.75;;;55.30;32.20;;;;;;5012084;28;20259;-73